Time;durP1;ratioP1;P1;durP2;ratioP2;P2;SDS_P1;SDS_P2;PMS_P1;PMS_P2;Temp;Humidity;BMP_temperature;BMP_pressure;BME280_temperature;BME280_humidity;BME280_pressure;Samples;Min_cycle;Max_cycle;Signal;HPM_P1;HPM_P2
2023/12/16 00:01:19;;;;;;;8.32;4.32;;;;;;;7.75;50.84;103534.59;4935566;29;20067;-74
2023/12/16 00:03:48;;;;;;;8.68;4.13;;;;;;;7.76;50.48;103524.59;4917410;29;20138;-73
2023/12/16 00:06:19;;;;;;;7.53;3.75;;;;;;;7.75;50.41;103522.81;4916958;29;20044;-74
2023/12/16 00:08:48;;;;;;;8.35;3.95;;;;;;;7.74;50.10;103523.75;4935491;29;20062;-74
2023/12/16 00:11:16;;;;;;;8.77;4.35;;;;;;;7.75;50.25;103528.25;4935114;29;20564;-73
2023/12/16 00:13:44;;;;;;;5.55;3.60;;;;;;;7.74;50.45;103524.63;4935648;29;20024;-74
2023/12/16 00:16:12;;;;;;;8.80;3.97;;;;;;;7.75;50.31;103528.25;4923941;29;20043;-73
2023/12/16 00:18:40;;;;;;;11.07;4.53;;;;;;;7.75;50.50;103525.53;4934683;29;20044;-72
2023/12/16 00:21:09;;;;;;;6.97;3.63;;;;;;;7.76;50.02;103528.22;4932115;29;20044;-74
2023/12/16 00:23:37;;;;;;;8.20;4.43;;;;;;;7.75;50.34;103525.53;4934230;29;20564;-74
2023/12/16 00:26:05;;;;;;;7.28;4.35;;;;;;;7.75;50.40;103530.97;4934229;29;20393;-74
2023/12/16 00:28:33;;;;;;;9.55;4.00;;;;;;;7.74;49.98;103532.81;4934784;29;20056;-73
2023/12/16 00:31:01;;;;;;;7.80;4.05;;;;;;;7.74;50.08;103526.47;4935380;29;20119;-74
2023/12/16 00:33:29;;;;;;;7.57;3.67;;;;;;;7.74;49.97;103521.03;4921910;29;20039;-74
2023/12/16 00:35:57;;;;;;;6.78;3.92;;;;;;;7.74;50.13;103526.47;4917731;29;20042;-73
2023/12/16 00:38:26;;;;;;;10.15;3.88;;;;;;;7.75;50.17;103525.53;4933386;29;20063;-74
2023/12/16 00:40:54;;;;;;;9.80;4.10;;;;;;;7.74;50.48;103515.56;4917608;29;20063;-74
2023/12/16 00:43:22;;;;;;;8.40;3.70;;;;;;;7.73;50.12;103511.94;4934634;29;20127;-74
2023/12/16 00:45:51;;;;;;;9.13;4.03;;;;;;;7.73;49.93;103520.13;4935034;29;20098;-74
2023/12/16 00:48:18;;;;;;;7.85;3.40;;;;;;;7.72;49.93;103504.72;4928474;29;20409;-72
2023/12/16 00:50:46;;;;;;;8.07;4.03;;;;;;;7.73;50.32;103516.50;4934544;29;20051;-74
2023/12/16 00:53:14;;;;;;;9.05;3.50;;;;;;;7.73;49.71;103522.84;4943525;29;20050;-74
2023/12/16 00:55:44;;;;;;;6.05;4.10;;;;;;;7.73;49.89;103517.41;4917730;29;20453;-73
2023/12/16 00:58:11;;;;;;;8.70;3.67;;;;;;;7.73;49.87;103516.50;4934885;29;20135;-74
2023/12/16 01:00:42;;;;;;;7.85;3.45;;;;;;;7.72;49.92;103507.44;4934306;29;20059;-73
2023/12/16 01:03:10;;;;;;;8.50;3.80;;;;;;;7.72;50.07;103515.63;4934043;29;20051;-75
2023/12/16 01:05:38;;;;;;;10.32;3.60;;;;;;;7.72;50.05;103506.53;4933908;29;20043;-73
2023/12/16 01:08:06;;;;;;;7.28;3.83;;;;;;;7.72;49.78;103515.63;4917305;29;20098;-72
2023/12/16 01:10:34;;;;;;;7.45;3.45;;;;;;;7.72;50.20;103514.72;4917013;29;20514;-73
2023/12/16 01:13:04;;;;;;;9.18;3.85;;;;;;;7.73;49.79;103522.84;4928385;29;20039;-73
2023/12/16 01:15:32;;;;;;;6.82;3.67;;;;;;;7.72;50.36;103522.91;4922721;29;20477;-74
2023/12/16 01:18:00;;;;;;;9.23;3.55;;;;;;;7.72;49.97;103523.78;4940164;29;20047;-73
2023/12/16 01:20:28;;;;;;;8.82;3.38;;;;;;;7.72;50.28;103531.06;4936975;28;20094;-74
2023/12/16 01:22:56;;;;;;;7.18;3.72;;;;;;;7.72;49.95;103523.78;4933906;29;20134;-74
2023/12/16 01:25:24;;;;;;;7.75;3.60;;;;;;;7.71;50.12;103524.72;4917528;29;20074;-74
2023/12/16 01:27:52;;;;;;;7.07;3.58;;;;;;;7.71;50.18;103530.19;4916862;29;20085;-74
2023/12/16 01:30:24;;;;;;;9.70;4.00;;;;;;;7.72;49.90;103526.50;4930662;29;20557;-74
2023/12/16 01:32:52;;;;;;;8.02;3.60;;;;;;;7.69;49.87;103532.06;4916708;29;20043;-75
2023/12/16 01:35:20;;;;;;;8.48;4.22;;;;;;;7.69;50.07;103534.78;4924542;29;20114;-73
2023/12/16 01:37:48;;;;;;;6.38;3.42;;;;;;;7.70;49.79;103530.22;4916537;29;20062;-74
2023/12/16 01:40:16;;;;;;;7.70;3.78;;;;;;;7.69;49.86;103545.69;4933850;29;20071;-74
2023/12/16 01:42:46;;;;;;;6.63;3.30;;;;;;;7.71;49.68;103553.81;4919586;29;20043;-74
2023/12/16 01:45:16;;;;;;;6.45;3.42;;;;;;;7.69;49.87;103551.13;4919051;29;20094;-74
2023/12/16 01:47:46;;;;;;;8.10;3.38;;;;;;;7.70;49.61;103555.66;4933486;29;20044;-74
2023/12/16 01:50:14;;;;;;;8.77;3.58;;;;;;;7.69;49.66;103556.59;4933272;29;20552;-74
2023/12/16 01:52:44;;;;;;;10.27;3.85;;;;;;;7.69;49.67;103555.69;4916451;29;20532;-75
2023/12/16 01:55:12;;;;;;;7.20;3.75;;;;;;;7.69;49.73;103553.88;4932990;29;20040;-73
2023/12/16 01:57:41;;;;;;;9.63;4.28;;;;;;;7.69;49.72;103551.13;4916383;29;20043;-75
2023/12/16 02:00:20;;;;;;;7.25;3.55;;;;;;;7.69;50.14;103558.41;4918866;29;20047;-74
2023/12/16 02:02:51;;;;;;;6.97;3.35;;;;;;;7.70;49.63;103557.47;4920220;29;20112;-74
2023/12/16 02:05:20;;;;;;;7.25;3.60;;;;;;;7.70;49.97;103549.31;4919143;29;20068;-74
2023/12/16 02:07:48;;;;;;;8.30;3.92;;;;;;;7.68;49.95;103549.38;4933407;29;20118;-75
2023/12/16 02:10:16;;;;;;;7.35;3.15;;;;;;;7.68;49.82;103537.59;4933506;29;20126;-75
2023/12/16 02:12:44;;;;;;;10.23;3.22;;;;;;;7.69;49.81;103544.78;4915498;29;20095;-75
2023/12/16 02:15:12;;;;;;;8.10;3.33;;;;;;;7.68;49.84;103549.38;4937119;29;20521;-75
2023/12/16 02:17:40;;;;;;;7.32;3.88;;;;;;;7.67;49.92;103536.69;4933530;29;20168;-75
2023/12/16 02:20:11;;;;;;;7.85;3.33;;;;;;;7.69;50.03;103542.06;4933153;29;20057;-74
2023/12/16 02:22:39;;;;;;;6.53;3.17;;;;;;;7.67;50.05;103552.16;4919139;29;20111;-74
2023/12/16 02:25:11;;;;;;;6.07;2.90;;;;;;;7.69;49.29;103544.78;4933282;29;20131;-74
2023/12/16 02:27:39;;;;;;;5.72;3.15;;;;;;;7.67;50.19;103546.69;4916377;29;20047;-73
2023/12/16 02:30:09;;;;;;;4.97;3.08;;;;;;;7.67;49.87;103546.69;4932342;29;20571;-73
2023/12/16 02:32:37;;;;;;;8.70;3.22;;;;;;;7.65;50.11;103546.75;4932900;29;20066;-74
2023/12/16 02:35:06;;;;;;;7.00;2.75;;;;;;;7.67;50.29;103544.88;4911661;29;20055;-75
2023/12/16 02:37:34;;;;;;;7.22;3.10;;;;;;;7.65;49.75;103546.75;4919738;29;20044;-74
2023/12/16 02:40:02;;;;;;;8.93;3.25;;;;;;;7.67;50.23;103549.44;4933407;29;20055;-75
2023/12/16 02:42:31;;;;;;;6.88;3.47;;;;;;;7.67;49.75;103541.25;4916706;29;20095;-74
2023/12/16 02:44:59;;;;;;;7.45;3.10;;;;;;;7.65;49.81;103554.94;4917587;29;20048;-74
2023/12/16 02:47:27;;;;;;;8.98;3.22;;;;;;;7.65;50.11;103540.41;4915300;29;20147;-75
2023/12/16 02:49:55;;;;;;;7.20;3.45;;;;;;;7.65;49.95;103543.13;4932238;29;20047;-75
2023/12/16 02:52:23;;;;;;;7.18;3.70;;;;;;;7.64;49.80;103544.97;4927088;29;20056;-74
2023/12/16 02:54:51;;;;;;;5.63;3.17;;;;;;;7.65;49.69;103548.56;4932235;29;20056;-74
2023/12/16 02:57:19;;;;;;;7.10;2.83;;;;;;;7.63;50.14;103537.72;4932325;29;20047;-74
2023/12/16 02:59:48;;;;;;;6.28;2.70;;;;;;;7.64;49.32;103534.06;4929449;29;20075;-73
2023/12/16 03:02:16;;;;;;;6.05;2.65;;;;;;;7.63;49.35;103524.09;4916359;29;20516;-74
2023/12/16 03:04:44;;;;;;;7.38;3.00;;;;;;;7.64;49.43;103524.97;4915085;29;20502;-74
2023/12/16 03:07:12;;;;;;;7.72;3.33;;;;;;;7.63;49.82;103529.53;4932157;29;20059;-73
2023/12/16 03:09:40;;;;;;;6.95;2.58;;;;;;;7.64;49.62;103535.88;4931727;29;20062;-74
2023/12/16 03:12:08;;;;;;;7.18;2.80;;;;;;;7.64;49.52;103541.34;4932207;29;20071;-73
2023/12/16 03:14:39;;;;;;;7.25;3.03;;;;;;;7.63;49.06;103534.09;4932042;29;20120;-73
2023/12/16 03:17:09;;;;;;;5.88;2.65;;;;;;;7.63;48.88;103532.28;4914423;29;20051;-73
2023/12/16 03:19:36;;;;;;;7.82;2.65;;;;;;;7.63;49.46;103534.09;4923922;29;20055;-73
2023/12/16 03:22:05;;;;;;;10.82;3.25;;;;;;;7.62;49.20;103533.22;4913631;29;20076;-74
2023/12/16 03:24:33;;;;;;;6.90;2.42;;;;;;;7.63;49.05;103528.66;4932543;29;20043;-73
2023/12/16 03:27:01;;;;;;;6.90;2.90;;;;;;;7.63;48.99;103525.91;4932337;29;20099;-72
2023/12/16 03:29:29;;;;;;;5.25;2.45;;;;;;;7.61;48.61;103512.34;4923126;29;20142;-73
2023/12/16 03:31:57;;;;;;;6.00;2.50;;;;;;;7.61;48.63;103519.63;4931711;29;20056;-74
2023/12/16 03:34:26;;;;;;;6.70;2.30;;;;;;;7.62;48.42;103522.31;4925243;29;20092;-73
2023/12/16 03:36:54;;;;;;;7.85;2.35;;;;;;;7.61;48.63;103516.91;4932292;29;20417;-74
2023/12/16 03:39:22;;;;;;;7.10;2.30;;;;;;;7.60;48.57;103520.59;4932250;29;20433;-73
2023/12/16 03:41:50;;;;;;;7.82;2.65;;;;;;;7.61;48.45;103522.34;4931518;29;20134;-72
2023/12/16 03:44:18;;;;;;;5.80;2.50;;;;;;;7.61;48.56;103514.16;4932086;29;20044;-73
2023/12/16 03:46:46;;;;;;;4.53;2.50;;;;;;;7.62;48.56;103513.22;4931344;29;20116;-72
2023/12/16 03:49:14;;;;;;;5.72;2.70;;;;;;;7.61;48.39;103519.63;4918938;29;20151;-73
2023/12/16 03:51:43;;;;;;;5.57;2.50;;;;;;;7.62;48.37;103513.22;4931881;29;20592;-72
2023/12/16 03:54:11;;;;;;;6.35;2.40;;;;;;;7.61;48.63;103501.44;4914582;29;20544;-74
2023/12/16 03:56:39;;;;;;;6.03;3.13;;;;;;;7.61;48.28;103506.00;4931727;29;20063;-73
2023/12/16 03:59:07;;;;;;;5.55;3.20;;;;;;;7.61;48.45;103504.16;4931544;29;20095;-73
2023/12/16 04:01:35;;;;;;;7.25;3.25;;;;;;;7.61;48.04;103504.16;4930566;29;20131;-75
2023/12/16 04:04:03;;;;;;;7.82;3.20;;;;;;;7.61;48.29;103496.00;4931285;29;20521;-73
2023/12/16 04:06:31;;;;;;;9.88;4.30;;;;;;;7.63;48.53;103501.41;4927682;29;20556;-72
2023/12/16 04:09:00;;;;;;;6.35;2.95;;;;;;;7.63;47.93;103499.56;4926600;29;20075;-72
2023/12/16 04:11:28;;;;;;;6.93;3.63;;;;;;;7.61;48.03;103503.28;4924104;29;20139;-73
2023/12/16 04:13:56;;;;;;;6.10;2.95;;;;;;;7.61;48.45;103506.00;4931748;29;20126;-76
2023/12/16 04:16:24;;;;;;;6.70;2.90;;;;;;;7.60;48.29;103507.81;4918484;29;20079;-74
2023/12/16 04:18:52;;;;;;;7.53;2.97;;;;;;;7.61;48.36;103506.88;4931759;29;20070;-75
2023/12/16 04:21:20;;;;;;;5.60;2.78;;;;;;;7.60;48.19;103502.38;4935426;29;20051;-74
2023/12/16 04:23:48;;;;;;;6.22;2.97;;;;;;;7.61;48.01;103511.44;4925150;29;20568;-75
2023/12/16 04:26:17;;;;;;;6.20;2.72;;;;;;;7.62;47.83;103524.13;4917979;29;20082;-74
2023/12/16 04:28:45;;;;;;;5.70;2.67;;;;;;;7.60;48.03;103526.03;4934640;29;20136;-75
2023/12/16 04:31:17;;;;;;;6.63;2.70;;;;;;;7.61;47.72;103525.97;4934821;29;20431;-75
2023/12/16 04:33:45;;;;;;;6.60;2.65;;;;;;;7.56;48.27;103530.69;4935374;29;20106;-74
2023/12/16 04:36:14;;;;;;;4.65;2.80;;;;;;;7.60;48.06;103526.03;4935532;29;20074;-75
2023/12/16 04:38:42;;;;;;;7.25;3.13;;;;;;;7.58;48.03;103531.53;4934773;29;20147;-74
2023/12/16 04:41:12;;;;;;;6.00;2.53;;;;;;;7.58;48.33;103523.38;4916894;29;20066;-75
2023/12/16 04:43:41;;;;;;;9.52;3.50;;;;;;;7.58;47.88;103526.09;4935030;29;20058;-75
2023/12/16 04:46:09;;;;;;;6.35;2.63;;;;;;;7.57;47.89;103521.56;4935971;29;20434;-75
2023/12/16 04:48:37;;;;;;;7.25;3.08;;;;;;;7.56;47.98;103517.06;4934916;29;20185;-75
2023/12/16 04:51:05;;;;;;;4.60;2.65;;;;;;;7.56;48.10;103519.78;4934652;29;20491;-75
2023/12/16 04:53:34;;;;;;;6.45;2.40;;;;;;;7.55;48.02;103518.91;4922627;29;20047;-75
2023/12/16 04:56:02;;;;;;;5.88;2.28;;;;;;;7.56;47.91;103519.78;4917481;29;20392;-74
2023/12/16 04:58:30;;;;;;;4.93;2.80;;;;;;;7.54;47.88;103517.09;4934263;29;20119;-75
2023/12/16 05:01:00;;;;;;;6.10;2.80;;;;;;;7.55;47.77;103518.91;4926146;29;20051;-75
2023/12/16 05:03:28;;;;;;;5.90;2.30;;;;;;;7.52;47.96;103518.97;4934754;29;20071;-75
2023/12/16 05:05:56;;;;;;;4.75;2.50;;;;;;;7.52;47.89;103524.44;4933860;29;20039;-75
2023/12/16 05:08:24;;;;;;;5.35;2.40;;;;;;;7.52;48.14;103526.25;4934357;29;20044;-75
2023/12/16 05:10:52;;;;;;;5.50;2.90;;;;;;;7.52;48.06;103539.88;4934605;29;20126;-72
2023/12/16 05:13:20;;;;;;;5.07;2.50;;;;;;;7.50;47.64;103536.34;4933389;29;20055;-74
2023/12/16 05:15:48;;;;;;;5.40;2.38;;;;;;;7.50;47.90;103534.50;4933953;29;20040;-73
2023/12/16 05:18:17;;;;;;;5.30;2.70;;;;;;;7.51;47.76;103538.13;4933194;29;20047;-74
2023/12/16 05:20:45;;;;;;;5.50;2.80;;;;;;;7.50;47.65;103542.69;4918940;29;20051;-75
2023/12/16 05:23:14;;;;;;;6.13;2.78;;;;;;;7.49;47.96;103538.19;4913189;29;20054;-74
2023/12/16 05:25:42;;;;;;;9.23;3.08;;;;;;;7.48;47.88;103536.38;4933933;29;20569;-73
2023/12/16 05:28:10;;;;;;;6.18;2.90;;;;;;;7.48;47.82;103539.13;4931918;29;20388;-75
2023/12/16 05:30:38;;;;;;;8.10;3.55;;;;;;;7.48;47.92;103539.13;4939750;28;20043;-75
2023/12/16 05:33:06;;;;;;;7.43;3.00;;;;;;;7.47;47.64;103534.59;4933714;29;20103;-74
2023/12/16 05:35:35;;;;;;;7.13;2.75;;;;;;;7.48;47.95;103539.13;4915903;29;20541;-75
2023/12/16 05:38:04;;;;;;;6.80;2.92;;;;;;;7.46;47.78;103535.53;4933295;29;20103;-75
2023/12/16 05:40:32;;;;;;;6.47;3.08;;;;;;;7.46;48.04;103538.25;4933945;29;20052;-74
2023/12/16 05:43:00;;;;;;;5.55;2.60;;;;;;;7.47;47.84;103536.44;4931454;29;20047;-75
2023/12/16 05:45:28;;;;;;;6.20;3.17;;;;;;;7.46;47.89;103537.38;4916823;29;20036;-75
2023/12/16 05:47:56;;;;;;;5.28;2.67;;;;;;;7.45;47.63;103541.03;4924340;29;20055;-75
2023/12/16 05:50:24;;;;;;;5.40;2.83;;;;;;;7.45;47.74;103538.31;4915484;29;20441;-74
2023/12/16 05:52:53;;;;;;;7.47;3.10;;;;;;;7.45;47.55;103539.19;4933408;29;20054;-75
2023/12/16 05:55:21;;;;;;;5.97;2.80;;;;;;;7.44;48.09;103548.31;4919613;29;20052;-74
2023/12/16 05:57:49;;;;;;;7.28;2.83;;;;;;;7.44;48.02;103553.75;4933294;29;20126;-74
2023/12/16 06:00:18;;;;;;;5.90;3.05;;;;;;;7.45;47.88;103546.47;4933798;29;20438;-75
2023/12/16 06:02:46;;;;;;;7.93;2.83;;;;;;;7.44;47.66;103551.03;4918608;29;20055;-74
2023/12/16 06:05:14;;;;;;;8.57;3.10;;;;;;;7.45;47.73;103555.56;4933362;29;20059;-74
2023/12/16 06:07:42;;;;;;;6.03;2.92;;;;;;;7.45;47.74;103552.81;4932517;29;20059;-74
2023/12/16 06:10:11;;;;;;;6.28;2.78;;;;;;;7.46;47.89;103551.88;4932668;29;20035;-74
2023/12/16 06:12:40;;;;;;;7.22;2.92;;;;;;;7.45;47.69;103560.09;4936325;29;20405;-73
2023/12/16 06:15:08;;;;;;;8.18;2.85;;;;;;;7.45;47.74;103552.81;4918540;29;20449;-73
2023/12/16 06:17:36;;;;;;;5.15;2.55;;;;;;;7.45;47.84;103549.22;4935026;29;20035;-74
2023/12/16 06:20:06;;;;;;;6.95;3.08;;;;;;;7.46;47.60;103548.28;4933172;29;20126;-74
2023/12/16 06:22:35;;;;;;;6.90;2.90;;;;;;;7.46;47.45;103551.88;4931601;29;20050;-74
2023/12/16 06:25:03;;;;;;;7.18;2.83;;;;;;;7.46;47.76;103553.72;4916232;29;20048;-72
2023/12/16 06:27:32;;;;;;;7.20;2.90;;;;;;;7.47;47.89;103556.41;4925016;29;20044;-74
2023/12/16 06:30:00;;;;;;;7.80;2.83;;;;;;;7.46;48.01;103554.63;4924856;29;20123;-74
2023/12/16 06:32:28;;;;;;;7.25;3.22;;;;;;;7.47;47.81;103553.69;4926118;29;20048;-74
2023/12/16 06:34:56;;;;;;;5.90;2.83;;;;;;;7.47;47.65;103558.22;4920098;29;20048;-74
2023/12/16 06:37:24;;;;;;;6.95;2.92;;;;;;;7.46;47.67;103561.91;4919143;29;20067;-73
2023/12/16 06:39:53;;;;;;;7.55;2.90;;;;;;;7.46;47.61;103561.91;4919789;29;20542;-74
2023/12/16 06:42:21;;;;;;;7.00;3.25;;;;;;;7.46;48.09;103564.63;4914780;29;20127;-72
2023/12/16 06:44:50;;;;;;;7.43;3.20;;;;;;;7.47;47.72;103563.69;4905774;29;20044;-73
2023/12/16 06:47:18;;;;;;;6.90;2.65;;;;;;;7.45;48.13;103551.94;4917791;29;20050;-74
2023/12/16 06:49:46;;;;;;;6.88;2.85;;;;;;;7.46;48.02;103553.72;4932709;29;20058;-74
2023/12/16 06:52:15;;;;;;;7.82;2.67;;;;;;;7.45;48.16;103547.38;4931978;29;20040;-74
2023/12/16 06:54:43;;;;;;;8.02;2.78;;;;;;;7.46;47.68;103556.44;4914981;29;20115;-74
2023/12/16 06:57:11;;;;;;;5.45;2.60;;;;;;;7.45;47.58;103552.81;4920522;29;20036;-74
2023/12/16 06:59:39;;;;;;;7.20;2.70;;;;;;;7.46;47.93;103551.00;4931975;29;20091;-74
2023/12/16 07:02:08;;;;;;;6.05;2.80;;;;;;;7.47;48.20;103556.41;5014294;23;20444;-72
2023/12/16 07:04:36;;;;;;;6.72;2.50;;;;;;;7.47;47.96;103560.97;4936280;28;20036;-72
2023/12/16 07:07:04;;;;;;;5.88;2.60;;;;;;;7.48;48.44;103573.66;4951220;28;20046;-72
2023/12/16 07:09:32;;;;;;;8.90;3.25;;;;;;;7.47;48.16;103574.59;4938223;28;20043;-72
2023/12/16 07:12:00;;;;;;;5.72;2.85;;;;;;;7.47;48.09;103580.94;4935784;29;20058;-72
2023/12/16 07:14:28;;;;;;;7.18;2.50;;;;;;;7.48;47.97;103573.66;4919160;29;20050;-72
2023/12/16 07:16:56;;;;;;;6.32;2.65;;;;;;;7.48;47.97;103581.81;4933841;29;20110;-71
2023/12/16 07:19:27;;;;;;;6.88;2.90;;;;;;;7.49;48.21;103583.59;4915212;29;20036;-72
2023/12/16 07:21:55;;;;;;;7.07;3.15;;;;;;;7.47;47.90;103574.59;4935938;29;20082;-71
2023/12/16 07:24:23;;;;;;;6.38;3.03;;;;;;;7.48;48.08;103584.53;4930537;29;20052;-72
2023/12/16 07:26:51;;;;;;;6.43;2.95;;;;;;;7.48;48.14;103590.88;4931621;29;20062;-72
2023/12/16 07:29:20;;;;;;;8.93;3.13;;;;;;;7.48;48.03;103584.53;4933589;28;20052;-72
2023/12/16 07:31:49;;;;;;;6.72;2.67;;;;;;;7.49;48.26;103583.59;4933053;28;20043;-72
2023/12/16 07:34:17;;;;;;;5.30;2.80;;;;;;;7.48;48.06;103585.44;4916416;29;20082;-73
2023/12/16 07:36:46;;;;;;;6.10;3.00;;;;;;;7.50;48.27;103588.13;4938954;29;20044;-73
2023/12/16 07:39:15;;;;;;;6.07;2.80;;;;;;;7.49;48.50;103595.41;4938062;29;20126;-72
2023/12/16 07:41:43;;;;;;;7.25;3.25;;;;;;;7.49;48.07;103592.69;4923573;29;20059;-72
2023/12/16 07:44:11;;;;;;;7.22;3.10;;;;;;;7.49;48.13;103586.34;4934194;28;20535;-72
2023/12/16 07:46:40;;;;;;;7.15;2.88;;;;;;;7.51;48.42;103587.19;4919411;29;20047;-71
2023/12/16 07:49:08;;;;;;;7.28;2.97;;;;;;;7.50;48.41;103593.56;4934254;28;20043;-72
2023/12/16 07:51:36;;;;;;;10.55;3.25;;;;;;;7.50;48.33;103588.13;4940783;29;20130;-72
2023/12/16 07:54:06;;;;;;;7.72;2.88;;;;;;;7.51;48.64;103596.25;4937218;29;20039;-71
2023/12/16 07:56:34;;;;;;;6.72;2.97;;;;;;;7.51;48.32;103595.38;4919068;29;21566;-73
2023/12/16 07:59:02;;;;;;;6.88;3.30;;;;;;;7.50;48.34;103599.91;4935270;29;20126;-71
2023/12/16 08:01:30;;;;;;;6.75;3.03;;;;;;;7.50;48.52;103599.03;4933485;29;20059;-72
2023/12/16 08:03:58;;;;;;;6.53;2.80;;;;;;;7.50;48.68;103599.91;4939745;29;20044;-72
2023/12/16 08:06:26;;;;;;;6.90;3.10;;;;;;;7.50;48.43;103597.19;4932627;29;20082;-72
2023/12/16 08:08:54;;;;;;;7.65;3.72;;;;;;;7.50;48.54;103597.19;4919436;29;20709;-72
2023/12/16 08:11:23;;;;;;;6.60;2.67;;;;;;;7.51;48.53;103598.09;4938359;28;20044;-72
2023/12/16 08:13:51;;;;;;;10.32;3.40;;;;;;;7.49;48.49;103595.41;4938545;29;20051;-72
2023/12/16 08:16:19;;;;;;;7.90;3.40;;;;;;;7.49;48.49;103592.69;4932970;29;20040;-72
2023/12/16 08:18:47;;;;;;;7.68;2.97;;;;;;;7.49;48.51;103592.69;4916213;29;20199;-72
2023/12/16 08:21:17;;;;;;;7.93;2.95;;;;;;;7.51;48.44;103596.25;4932218;29;20066;-72
2023/12/16 08:23:45;;;;;;;9.02;2.80;;;;;;;7.48;48.70;103593.63;4938895;29;20130;-71
2023/12/16 08:26:13;;;;;;;6.90;2.90;;;;;;;7.49;48.58;103592.69;4938574;28;20127;-73
2023/12/16 08:28:43;;;;;;;7.57;2.88;;;;;;;7.50;48.36;103597.19;4934054;29;20035;-72
2023/12/16 08:31:10;;;;;;;6.50;2.85;;;;;;;7.49;48.76;103599.97;4933859;29;20039;-72
2023/12/16 08:33:38;;;;;;;5.63;2.60;;;;;;;7.48;48.77;103599.06;4929976;29;20107;-72
2023/12/16 08:36:07;;;;;;;6.35;2.95;;;;;;;7.49;48.22;103614.47;4923255;29;20048;-72
2023/12/16 08:38:36;;;;;;;5.65;2.72;;;;;;;7.49;48.44;103622.66;4939443;28;20063;-73
2023/12/16 08:41:07;;;;;;;6.13;3.28;;;;;;;7.49;48.77;103625.38;4920421;29;20067;-72
2023/12/16 08:43:35;;;;;;;6.88;3.00;;;;;;;7.48;48.71;103626.31;4921453;29;20151;-72
2023/12/16 08:46:05;;;;;;;7.00;2.88;;;;;;;7.51;48.79;103622.63;4939597;29;20400;-72
2023/12/16 08:48:33;;;;;;;6.13;2.80;;;;;;;7.50;48.88;103627.16;4924183;29;20063;-71
2023/12/16 08:51:01;;;;;;;6.93;2.83;;;;;;;7.50;48.52;103629.00;4934263;28;20038;-76
2023/12/16 08:53:29;;;;;;;4.53;2.65;;;;;;;7.51;48.73;103630.78;4921613;29;20572;-72
2023/12/16 08:55:57;;;;;;;8.80;2.80;;;;;;;7.51;48.79;103634.41;4936309;29;20134;-73
2023/12/16 08:58:25;;;;;;;7.38;3.05;;;;;;;7.52;48.95;103632.53;4916215;28;20063;-74
2023/12/16 09:00:53;;;;;;;6.43;3.22;;;;;;;7.53;49.00;103643.41;4936914;28;20056;-73
2023/12/16 09:03:23;;;;;;;6.65;2.72;;;;;;;7.56;49.01;103639.69;4936081;29;20050;-74
2023/12/16 09:05:51;;;;;;;6.53;2.67;;;;;;;7.55;48.51;103636.09;4936664;28;20062;-74
2023/12/16 09:08:19;;;;;;;7.05;2.60;;;;;;;7.58;49.00;103649.63;4932420;28;20162;-75
2023/12/16 09:10:47;;;;;;;5.38;2.80;;;;;;;7.61;48.69;103647.72;4939109;28;20146;-76
2023/12/16 09:13:15;;;;;;;6.57;2.70;;;;;;;7.64;48.81;103650.38;4937804;29;20059;-76
2023/12/16 09:15:42;;;;;;;6.20;2.70;;;;;;;7.65;48.46;103658.50;4938753;29;20090;-74
2023/12/16 09:18:11;;;;;;;7.57;2.67;;;;;;;7.68;48.50;103663.88;4932795;29;20048;-74
2023/12/16 09:20:40;;;;;;;7.93;2.75;;;;;;;7.71;48.37;103668.31;4916088;29;20036;-73
2023/12/16 09:23:09;;;;;;;7.85;2.60;;;;;;;7.71;48.54;103669.19;4933543;29;20062;-72
2023/12/16 09:25:37;;;;;;;7.00;2.67;;;;;;;7.73;48.26;103669.16;4939016;29;20044;-72
2023/12/16 09:28:05;;;;;;;4.63;2.50;;;;;;;7.74;48.39;103663.66;4915523;29;20063;-73
2023/12/16 09:30:33;;;;;;;6.20;2.40;;;;;;;7.76;48.23;103671.81;4920777;29;20075;-73
2023/12/16 09:33:01;;;;;;;6.22;2.30;;;;;;;7.77;48.22;103670.84;4932645;29;20047;-73
2023/12/16 09:35:29;;;;;;;6.65;2.65;;;;;;;7.78;48.21;103670.78;4938335;29;20043;-72
2023/12/16 09:37:59;;;;;;;5.88;2.45;;;;;;;7.80;47.96;103676.22;4932867;29;20047;-72
2023/12/16 09:40:27;;;;;;;7.10;2.40;;;;;;;7.79;48.32;103672.59;4939927;28;20040;-72
2023/12/16 09:43:10;;;;;;;6.60;2.40;;;;;;;7.82;47.79;103668.88;4927655;29;20501;-72
2023/12/16 09:45:39;;;;;;;5.55;2.22;;;;;;;7.80;48.37;103665.31;4935767;29;20062;-73
2023/12/16 09:48:07;;;;;;;4.75;2.70;;;;;;;7.81;48.41;103667.09;4927977;29;20510;-73
2023/12/16 09:50:36;;;;;;;7.22;2.20;;;;;;;7.83;48.29;103660.66;4920568;29;20110;-72
2023/12/16 09:53:06;;;;;;;8.30;2.58;;;;;;;7.84;48.22;103653.38;4929567;29;20127;-73
2023/12/16 09:55:34;;;;;;;6.47;2.60;;;;;;;7.82;48.30;103657.97;4937160;29;20430;-73
2023/12/16 09:58:04;;;;;;;6.93;2.60;;;;;;;7.85;47.88;103655.13;4912572;29;20058;-73
2023/12/16 10:00:33;;;;;;;6.35;2.55;;;;;;;7.85;47.98;103660.59;4935088;29;20050;-72
2023/12/16 10:03:01;;;;;;;4.88;2.28;;;;;;;7.85;48.18;103666.94;4929301;29;20437;-73
2023/12/16 10:05:32;;;;;;;6.95;2.30;;;;;;;7.86;47.89;103659.66;4935877;29;20122;-73
2023/12/16 10:08:04;;;;;;;4.68;2.38;;;;;;;7.87;47.96;103653.25;4919111;29;20142;-73
2023/12/16 10:10:34;;;;;;;5.55;2.30;;;;;;;7.86;48.25;103652.34;4932513;28;20075;-73
2023/12/16 10:13:04;;;;;;;5.88;2.38;;;;;;;7.88;47.88;103655.03;4930232;29;20039;-73
2023/12/16 10:15:33;;;;;;;6.80;2.35;;;;;;;7.91;48.17;103649.50;4936175;28;20043;-72
2023/12/16 10:18:04;;;;;;;5.07;1.90;;;;;;;7.91;48.35;103652.22;4933426;28;20043;-72
2023/12/16 10:20:32;;;;;;;5.20;2.15;;;;;;;7.93;48.23;103648.50;4934348;29;20047;-73
2023/12/16 10:23:01;;;;;;;5.00;2.20;;;;;;;7.94;48.05;103649.38;4933506;29;20071;-72
2023/12/16 10:25:32;;;;;;;6.20;2.20;;;;;;;7.97;47.84;103657.47;4939363;29;20040;-72
2023/12/16 10:28:02;;;;;;;8.65;2.53;;;;;;;7.99;48.06;103657.44;4932336;29;20041;-73
2023/12/16 10:30:31;;;;;;;6.95;2.35;;;;;;;8.00;48.24;103675.59;4936570;29;20394;-73
2023/12/16 10:33:03;;;;;;;6.90;2.13;;;;;;;8.00;48.19;103664.69;4910733;29;20063;-63
2023/12/16 10:35:32;;;;;;;7.43;2.50;;;;;;;8.00;48.47;103659.22;4931655;29;20140;-63
2023/12/16 10:38:02;;;;;;;5.25;2.15;;;;;;;8.03;48.78;103665.44;4930413;28;20110;-74
2023/12/16 10:40:30;;;;;;;5.88;1.85;;;;;;;8.07;48.64;103660.81;4916832;29;20047;-73
2023/12/16 10:42:58;;;;;;;5.93;2.20;;;;;;;8.10;48.75;103656.13;4928519;29;20051;-72
2023/12/16 10:45:27;;;;;;;5.00;2.08;;;;;;;8.14;48.59;103654.22;4936606;29;20047;-73
2023/12/16 10:47:56;;;;;;;6.47;2.60;;;;;;;8.15;48.22;103654.19;4935106;29;20070;-72
2023/12/16 10:50:27;;;;;;;5.15;2.05;;;;;;;8.16;48.07;103645.06;4914930;29;20110;-73
2023/12/16 10:52:57;;;;;;;5.53;2.30;;;;;;;8.20;48.16;103645.84;4930985;29;20051;-73
2023/12/16 10:55:31;;;;;;;4.68;2.10;;;;;;;8.24;47.66;103647.53;4939739;29;20046;-74
2023/12/16 10:58:12;;;;;;;6.35;1.92;;;;;;;8.25;47.43;103647.50;4915579;29;20382;-73
2023/12/16 11:00:44;;;;;;;6.32;2.03;;;;;;;8.26;47.96;103642.91;4932063;28;20119;-73
2023/12/16 11:03:21;;;;;;;7.80;2.08;;;;;;;8.27;47.83;103641.97;4929069;29;20056;-73
2023/12/16 11:05:52;;;;;;;5.78;2.20;;;;;;;8.30;48.43;103637.31;4912237;29;20456;-73
2023/12/16 11:08:22;;;;;;;5.45;2.05;;;;;;;8.33;48.06;103629.03;4920011;29;20119;-73
2023/12/16 11:10:54;;;;;;;5.75;2.20;;;;;;;8.33;48.27;103617.22;4912405;29;20673;-72
2023/12/16 11:13:23;;;;;;;7.43;3.38;;;;;;;8.38;47.95;103619.78;4933902;29;20063;-72
2023/12/16 11:15:59;;;;;;;4.85;1.95;;;;;;;8.40;47.68;103617.88;4918846;29;20059;-73
2023/12/16 11:18:29;;;;;;;6.82;2.28;;;;;;;8.41;48.37;103614.22;4930217;29;20075;-72
2023/12/16 11:21:04;;;;;;;5.00;2.05;;;;;;;8.42;48.37;103611.44;4935063;28;20091;-72
2023/12/16 11:23:34;;;;;;;5.70;2.10;;;;;;;8.42;48.23;103610.53;4913849;29;20691;-72
2023/12/16 11:26:03;;;;;;;8.55;2.60;;;;;;;8.45;48.39;103607.69;4912365;29;20094;-73
2023/12/16 11:28:31;;;;;;;5.15;2.25;;;;;;;8.46;48.17;103604.03;4914489;29;20525;-72
2023/12/16 11:31:01;;;;;;;5.22;2.20;;;;;;;8.48;48.15;103602.13;4928277;29;20054;-74
2023/12/16 11:33:43;;;;;;;6.63;2.20;;;;;;;8.51;47.35;103608.34;4916183;29;20047;-73
2023/12/16 11:36:12;;;;;;;5.57;1.92;;;;;;;8.49;48.42;103601.19;4927193;29;20469;-73
2023/12/16 11:38:41;;;;;;;6.35;2.55;;;;;;;8.52;48.33;103603.78;4933185;28;20592;-73
2023/12/16 11:41:43;;;;;;;8.95;2.30;;;;;;;8.52;47.81;103590.16;4919462;29;20048;-74